Time;durP1;ratioP1;P1;durP2;ratioP2;P2;SDS_P1;SDS_P2;PMS_P1;PMS_P2;Temp;Humidity;BMP_temperature;BMP_pressure;BME280_temperature;BME280_humidity;BME280_pressure;Samples;Min_cycle;Max_cycle;Signal;HPM_P1;HPM_P2
2024/02/17 00:01:42;;;;;;;53.23;24.80;;;;;;;3.12;85.16;101739.89;122921;1102;104255;-81
2024/02/17 00:04:13;;;;;;;42.75;22.40;;;;;;;3.10;85.74;101736.27;122852;1105;104310;-80
2024/02/17 00:06:44;;;;;;;43.73;22.37;;;;;;;3.05;85.55;101737.53;122861;1105;104290;-80
2024/02/17 00:09:15;;;;;;;46.77;23.00;;;;;;;3.02;85.48;101732.08;122783;1105;104402;-80
2024/02/17 00:11:47;;;;;;;43.77;23.03;;;;;;;3.01;85.27;101728.59;122821;1102;104712;-80
2024/02/17 00:14:18;;;;;;;45.75;22.50;;;;;;;3.04;85.72;101726.27;122873;1104;104261;-81
2024/02/17 00:16:52;;;;;;;48.83;23.90;;;;;;;3.05;85.58;101724.56;122964;1102;104629;-80
2024/02/17 00:19:23;;;;;;;48.27;23.73;;;;;;;3.07;85.55;101720.44;122930;1105;104376;-83
2024/02/17 00:21:55;;;;;;;40.13;20.47;;;;;;;3.06;85.20;101719.52;123141;1105;104367;-81
2024/02/17 00:24:27;;;;;;;44.27;22.33;;;;;;;3.09;85.93;101715.39;122908;1105;104319;-80
2024/02/17 00:26:58;;;;;;;46.23;22.30;;;;;;;3.14;85.56;101720.17;122914;1105;104405;-81
2024/02/17 00:29:29;;;;;;;44.23;21.73;;;;;;;3.14;85.39;101717.57;122915;1105;104259;-80
2024/02/17 00:32:01;;;;;;;44.53;21.77;;;;;;;3.08;85.15;101722.23;122838;1102;104386;-80
2024/02/17 00:34:32;;;;;;;47.40;22.43;;;;;;;3.01;85.41;101725.11;122952;1105;104395;-81
2024/02/17 00:37:03;;;;;;;46.57;22.37;;;;;;;2.92;85.98;101716.53;122921;1102;104412;-81
2024/02/17 00:39:34;;;;;;;45.13;22.53;;;;;;;2.83;85.18;101724.41;122908;1105;104313;-80
2024/02/17 00:42:06;;;;;;;48.67;22.33;;;;;;;2.76;85.32;101722.06;122819;1105;104188;-80
2024/02/17 00:44:38;;;;;;;49.05;22.55;;;;;;;2.73;85.75;101722.72;122808;1105;104379;-80
2024/02/17 00:47:09;;;;;;;43.70;22.10;;;;;;;2.73;86.06;101722.72;122873;1102;104418;-80
2024/02/17 00:49:40;;;;;;;46.60;23.23;;;;;;;2.76;86.27;101722.06;122754;1105;104364;-80
2024/02/17 00:52:11;;;;;;;42.90;21.15;;;;;;;2.76;86.16;101720.39;122818;1105;104284;-81
2024/02/17 00:54:43;;;;;;;46.77;23.03;;;;;;;2.78;86.25;101721.42;122753;1104;104284;-80
2024/02/17 00:57:14;;;;;;;41.20;21.13;;;;;;;2.78;85.54;101720.53;122816;1105;104412;-80
2024/02/17 00:59:45;;;;;;;44.80;21.60;;;;;;;2.80;86.17;101721.56;122976;1105;104230;-80
2024/02/17 01:02:16;;;;;;;42.17;20.67;;;;;;;2.83;85.81;101727.91;122837;1102;104361;-80
2024/02/17 01:04:47;;;;;;;44.87;21.07;;;;;;;2.85;85.81;101728.04;122793;1102;104226;-80
2024/02/17 01:07:19;;;;;;;48.23;22.90;;;;;;;2.76;85.80;101724.65;122759;1102;104329;-80
2024/02/17 01:09:50;;;;;;;42.60;21.20;;;;;;;2.67;86.04;101719.59;123110;1102;104373;-80
2024/02/17 01:12:21;;;;;;;45.47;21.23;;;;;;;2.58;85.73;101717.10;122877;1103;104367;-80
2024/02/17 01:14:52;;;;;;;45.85;22.25;;;;;;;2.60;86.08;101717.23;122914;1105;104332;-81
2024/02/17 01:17:24;;;;;;;47.40;21.03;;;;;;;2.57;85.87;101722.15;122877;1102;104358;-80
2024/02/17 01:19:55;;;;;;;44.80;21.70;;;;;;;2.56;86.15;101720.36;122966;1102;104373;-80
2024/02/17 01:22:26;;;;;;;45.27;21.50;;;;;;;2.58;86.38;101722.28;123000;1102;104718;-81
2024/02/17 01:24:57;;;;;;;42.33;20.87;;;;;;;2.58;86.40;101709.33;122887;1105;104355;-80
2024/02/17 01:27:29;;;;;;;45.97;20.67;;;;;;;2.57;86.24;101709.19;122792;1105;104364;-80
2024/02/17 01:30:00;;;;;;;47.80;23.80;;;;;;;2.57;86.40;101709.19;122888;1105;104361;-80
2024/02/17 01:32:31;;;;;;;47.00;21.70;;;;;;;2.57;86.56;101707.53;122858;1105;104706;-81
2024/02/17 01:35:03;;;;;;;46.67;22.67;;;;;;;2.63;86.64;101705.48;122824;1105;104364;-80
2024/02/17 01:37:34;;;;;;;48.20;23.50;;;;;;;2.65;85.88;101702.98;122803;1104;104436;-80
2024/02/17 01:40:07;;;;;;;49.47;22.77;;;;;;;2.67;86.85;101698.86;122847;1105;104373;-80
2024/02/17 01:42:38;;;;;;;47.27;22.37;;;;;;;2.66;86.03;101708.30;122948;1102;104262;-79
2024/02/17 01:45:11;;;;;;;45.53;21.70;;;;;;;2.63;86.08;101707.14;122917;1105;104217;-79
2024/02/17 01:47:44;;;;;;;47.50;22.30;;;;;;;2.63;86.28;101708.06;123078;1105;104238;-81
2024/02/17 01:50:16;;;;;;;43.13;20.77;;;;;;;2.64;86.27;101711.55;122946;1105;104281;-80
2024/02/17 01:52:48;;;;;;;42.20;21.30;;;;;;;2.64;86.54;101711.55;122785;1103;104248;-80
2024/02/17 01:55:20;;;;;;;43.05;20.05;;;;;;;2.64;86.57;101706.38;122977;1102;104310;-81
2024/02/17 01:57:51;;;;;;;43.03;21.87;;;;;;;2.64;86.51;101714.15;123003;1105;104293;-80
2024/02/17 02:00:23;;;;;;;48.97;22.37;;;;;;;2.62;86.13;101713.12;122848;1103;104409;-79
2024/02/17 02:02:55;;;;;;;43.37;21.50;;;;;;;2.54;86.03;101716.70;122698;1105;104364;-79
2024/02/17 02:05:26;;;;;;;45.77;22.47;;;;;;;2.47;86.03;101716.16;122823;1105;104431;-82
2024/02/17 02:07:58;;;;;;;45.70;22.43;;;;;;;2.49;86.12;101717.23;122897;1105;104371;-82
2024/02/17 02:10:29;;;;;;;48.00;23.77;;;;;;;2.51;86.11;101720.84;122962;1105;104370;-81
2024/02/17 02:13:00;;;;;;;51.97;24.33;;;;;;;2.56;86.85;101722.95;122852;1102;104395;-81
2024/02/17 02:15:33;;;;;;;47.13;22.17;;;;;;;2.53;86.59;101717.50;122851;1102;104331;-80
2024/02/17 02:18:04;;;;;;;50.83;24.23;;;;;;;2.55;86.47;101719.42;122918;1102;104284;-82
2024/02/17 02:20:36;;;;;;;49.20;22.87;;;;;;;2.59;86.23;101710.26;122968;1102;104251;-82
2024/02/17 02:23:08;;;;;;;49.95;23.75;;;;;;;2.57;86.11;101715.31;123092;1102;104224;-80
2024/02/17 02:25:41;;;;;;;50.90;24.60;;;;;;;2.59;86.71;101716.34;123055;1105;104363;-80
2024/02/17 02:28:13;;;;;;;54.10;23.95;;;;;;;2.60;86.46;101710.39;123058;1104;104290;-79
2024/02/17 02:30:45;;;;;;;50.17;23.07;;;;;;;2.60;86.22;101709.45;123111;1105;104386;-80
2024/02/17 02:33:16;;;;;;;48.20;22.47;;;;;;;2.58;85.93;101708.43;122997;1102;104281;-80
2024/02/17 02:35:48;;;;;;;51.00;22.57;;;;;;;2.58;86.22;101716.20;123149;1102;104419;-80
2024/02/17 02:38:19;;;;;;;47.50;22.80;;;;;;;2.57;86.18;101717.90;123107;1101;104278;-82
2024/02/17 02:40:50;;;;;;;49.57;23.13;;;;;;;2.58;86.91;101719.69;122948;1102;104287;-82
2024/02/17 02:43:22;;;;;;;52.67;24.00;;;;;;;2.59;87.03;101716.34;122892;1102;104355;-80
2024/02/17 02:45:53;;;;;;;51.17;24.47;;;;;;;2.58;86.36;101717.10;122871;1105;104465;-82
2024/02/17 02:48:24;;;;;;;50.10;23.13;;;;;;;2.60;86.82;101712.05;122827;1105;104249;-82
2024/02/17 02:50:58;;;;;;;50.23;22.52;;;;;;;2.55;86.27;101718.53;123057;1105;104271;-81
2024/02/17 02:53:29;;;;;;;51.37;23.80;;;;;;;2.51;86.67;101717.36;123323;1104;104335;-81
2024/02/17 02:56:01;;;;;;;48.10;21.80;;;;;;;2.49;86.55;101719.82;123041;1102;104335;-80
2024/02/17 02:58:33;;;;;;;47.30;21.23;;;;;;;2.48;85.92;101714.50;122969;1102;104293;-82
2024/02/17 03:01:04;;;;;;;49.63;23.37;;;;;;;2.44;86.34;101718.48;122946;1102;104348;-78
2024/02/17 03:03:35;;;;;;;52.17;24.23;;;;;;;2.44;86.83;101721.08;122825;1102;104284;-79
2024/02/17 03:06:07;;;;;;;48.37;21.60;;;;;;;2.46;86.58;101716.03;122894;1105;104289;-82
2024/02/17 03:08:38;;;;;;;53.03;22.57;;;;;;;2.48;87.15;101720.58;122813;1105;104293;-81
2024/02/17 03:11:13;;;;;;;49.20;23.47;;;;;;;2.51;87.37;101722.55;122917;1105;104319;-80
2024/02/17 03:13:45;;;;;;;47.60;22.27;;;;;;;2.53;86.72;101718.39;123084;1105;104401;-81
2024/02/17 03:16:26;;;;;;;53.07;21.30;;;;;;;2.53;86.91;101725.27;122893;1102;104264;-80
2024/02/17 03:18:57;;;;;;;47.07;21.53;;;;;;;2.49;87.20;101721.48;122954;1102;104217;-80
2024/02/17 03:21:28;;;;;;;50.50;23.53;;;;;;;2.45;86.67;101725.49;122796;1102;104347;-81
2024/02/17 03:23:59;;;;;;;51.30;23.17;;;;;;;2.41;86.91;101728.58;122747;1102;104365;-79
2024/02/17 03:26:31;;;;;;;48.30;22.43;;;;;;;2.41;87.31;101738.05;122811;1105;104331;-79
2024/02/17 03:29:02;;;;;;;46.83;21.83;;;;;;;2.41;86.81;101736.34;122918;1105;104325;-81
2024/02/17 03:31:33;;;;;;;44.50;20.20;;;;;;;2.35;86.39;101738.40;122788;1105;104357;-79
2024/02/17 03:34:05;;;;;;;47.90;22.23;;;;;;;2.35;86.51;101743.58;122783;1105;104431;-81
2024/02/17 03:36:37;;;;;;;50.20;22.30;;;;;;;2.32;86.86;101736.47;122927;1102;104290;-79
2024/02/17 03:39:10;;;;;;;47.37;20.33;;;;;;;2.28;86.57;101730.88;122902;1105;104363;-79
2024/02/17 03:41:41;;;;;;;47.33;20.30;;;;;;;2.26;86.91;101729.81;123032;1102;104319;-82
2024/02/17 03:44:13;;;;;;;48.43;21.50;;;;;;;2.27;86.65;101731.64;123120;1102;104479;-80
2024/02/17 03:46:44;;;;;;;53.10;21.83;;;;;;;2.24;87.42;101729.67;123011;1103;104282;-81
2024/02/17 03:49:19;;;;;;;49.83;22.20;;;;;;;2.27;86.93;101729.05;122954;1105;104246;-82
2024/02/17 03:51:51;;;;;;;47.10;20.90;;;;;;;2.23;87.00;101725.29;123033;1105;104283;-81
2024/02/17 03:54:22;;;;;;;44.07;20.87;;;;;;;2.20;87.25;101721.49;123161;1105;104839;-80
2024/02/17 03:56:54;;;;;;;45.87;20.63;;;;;;;2.20;86.94;101724.09;122968;1102;105056;-81
2024/02/17 03:59:25;;;;;;;48.57;20.33;;;;;;;2.20;86.92;101726.67;122877;1102;104339;-80
2024/02/17 04:01:59;;;;;;;48.87;20.97;;;;;;;2.21;87.00;101728.50;123018;1102;104255;-80
2024/02/17 04:04:30;;;;;;;47.03;21.17;;;;;;;2.20;87.03;101730.20;122883;1102;104200;-78
2024/02/17 04:07:01;;;;;;;50.03;21.87;;;;;;;2.16;87.20;101728.99;123015;1105;104228;-82
2024/02/17 04:09:33;;;;;;;47.70;20.85;;;;;;;2.16;87.41;101731.58;123108;1105;104290;-80
2024/02/17 04:12:04;;;;;;;49.67;20.73;;;;;;;2.18;87.71;101728.23;122902;1105;104361;-81
2024/02/17 04:14:36;;;;;;;52.80;21.80;;;;;;;2.16;87.43;101718.63;122854;1103;104290;-80
2024/02/17 04:17:07;;;;;;;49.50;20.50;;;;;;;2.13;87.07;101715.77;122776;1102;111880;-80
2024/02/17 04:19:39;;;;;;;46.17;19.90;;;;;;;2.06;87.24;101705.66;123100;1104;104283;-80
2024/02/17 04:22:11;;;;;;;52.57;21.40;;;;;;;1.99;87.02;101700.70;122983;1105;104392;-80
2024/02/17 04:24:43;;;;;;;49.53;21.27;;;;;;;2.01;87.52;101704.35;122911;1105;104322;-80
2024/02/17 04:27:14;;;;;;;48.77;23.17;;;;;;;2.01;87.22;101695.66;122930;1105;104261;-80
2024/02/17 04:29:46;;;;;;;49.23;23.07;;;;;;;2.03;86.90;101699.31;122917;1106;104737;-80
2024/02/17 04:32:17;;;;;;;43.97;19.63;;;;;;;2.04;87.27;101701.11;123120;1105;104188;-80
2024/02/17 04:34:48;;;;;;;49.33;20.70;;;;;;;2.05;87.45;101705.52;122880;1105;104492;-80
2024/02/17 04:37:20;;;;;;;46.13;21.33;;;;;;;2.08;87.51;101716.16;122907;1102;104418;-80
2024/02/17 04:39:51;;;;;;;42.60;18.70;;;;;;;2.06;87.99;101716.02;122959;1102;104409;-82
2024/02/17 04:42:23;;;;;;;44.87;19.77;;;;;;;2.01;87.61;101722.48;123180;1102;104209;-80
2024/02/17 04:44:54;;;;;;;49.13;20.80;;;;;;;2.02;87.74;101728.55;122969;1102;104377;-80
2024/02/17 04:47:25;;;;;;;45.53;20.33;;;;;;;2.06;87.80;101736.73;122797;1102;104408;-79
2024/02/17 04:49:56;;;;;;;46.25;20.40;;;;;;;2.10;88.20;101736.25;122957;1104;104530;-80
2024/02/17 04:52:28;;;;;;;46.10;19.90;;;;;;;2.11;87.94;101729.38;122867;1105;104335;-80
2024/02/17 04:54:59;;;;;;;41.93;17.27;;;;;;;2.09;87.78;101741.29;122875;1104;104245;-79
2024/02/17 04:57:30;;;;;;;40.23;18.03;;;;;;;2.08;87.81;101740.36;122896;1102;104288;-80
2024/02/17 05:00:01;;;;;;;40.70;18.47;;;;;;;2.09;87.97;101736.11;122918;1102;104325;-80
2024/02/17 05:02:33;;;;;;;38.40;17.27;;;;;;;2.08;88.01;101731.69;123026;1105;104306;-81
2024/02/17 05:05:05;;;;;;;36.00;16.53;;;;;;;2.03;87.39;101732.97;123092;1105;104875;-81
2024/02/17 05:07:36;;;;;;;36.10;16.70;;;;;;;2.03;87.81;101733.87;123112;1105;104402;-80
2024/02/17 05:10:09;;;;;;;43.30;18.27;;;;;;;2.02;88.12;101732.04;122864;1105;104773;-81
2024/02/17 05:12:40;;;;;;;40.57;16.77;;;;;;;2.03;87.47;101723.51;122988;1105;104670;-81
2024/02/17 05:15:13;;;;;;;39.85;17.85;;;;;;;2.04;87.61;101727.00;122935;1105;104376;-81
2024/02/17 05:17:45;;;;;;;40.10;18.00;;;;;;;2.01;88.04;101727.66;122723;1102;104284;-81
2024/02/17 05:20:16;;;;;;;40.00;17.90;;;;;;;1.94;87.38;101740.80;122855;1102;104300;-81
2024/02/17 05:22:47;;;;;;;43.47;19.27;;;;;;;1.89;87.77;101739.49;122924;1102;104303;-81
2024/02/17 05:25:20;;;;;;;40.30;18.23;;;;;;;1.88;87.86;101745.43;123023;1105;104421;-80
2024/02/17 05:27:52;;;;;;;38.40;18.35;;;;;;;1.90;87.59;101739.63;122844;1102;104284;-81
2024/02/17 05:30:24;;;;;;;43.57;19.10;;;;;;;1.94;87.92;101743.39;122909;1103;104667;-81
2024/02/17 05:32:56;;;;;;;38.03;17.00;;;;;;;1.93;88.02;101734.73;122869;1105;104284;-80
2024/02/17 05:35:27;;;;;;;39.80;18.53;;;;;;;1.94;87.76;101733.04;122995;1105;104259;-81
2024/02/17 05:37:59;;;;;;;38.80;18.13;;;;;;;1.96;87.90;101740.19;123133;1102;104249;-81
2024/02/17 05:40:30;;;;;;;40.50;17.53;;;;;;;1.95;87.95;101740.05;123240;1102;104370;-82
2024/02/17 05:43:02;;;;;;;38.70;18.47;;;;;;;1.93;87.27;101746.74;123073;1104;104284;-81
2024/02/17 05:45:33;;;;;;;39.73;17.83;;;;;;;1.91;87.82;101749.19;123269;1102;104185;-81
2024/02/17 05:48:05;;;;;;;38.40;17.90;;;;;;;1.88;87.67;101756.68;122961;1106;104373;-81
2024/02/17 05:50:36;;;;;;;37.23;18.00;;;;;;;1.92;87.75;101760.48;123067;1105;104523;-81
2024/02/17 05:53:07;;;;;;;37.63;17.30;;;;;;;1.97;88.77;101761.80;123029;1105;104261;-81
2024/02/17 05:55:39;;;;;;;38.60;18.60;;;;;;;1.99;87.95;101768.01;123058;1105;104367;-83
2024/02/17 05:58:10;;;;;;;40.30;18.10;;;;;;;2.01;87.85;101773.33;122964;1105;104286;-81
2024/02/17 06:00:41;;;;;;;41.60;18.67;;;;;;;2.03;88.24;101772.70;123007;1102;104255;-80
2024/02/17 06:03:12;;;;;;;40.17;19.43;;;;;;;2.06;88.15;101765.22;122888;1105;104562;-80
2024/02/17 06:05:44;;;;;;;44.30;20.33;;;;;;;2.09;88.52;101773.26;122745;1105;104306;-80
2024/02/17 06:08:15;;;;;;;41.87;19.03;;;;;;;2.08;88.21;101768.84;122874;1102;104213;-81
2024/02/17 06:10:46;;;;;;;41.30;18.75;;;;;;;2.10;88.23;101772.50;122917;1105;104364;-82
2024/02/17 06:13:20;;;;;;;39.80;18.63;;;;;;;2.09;88.08;101775.84;123065;1105;104288;-81
2024/02/17 06:15:52;;;;;;;40.50;18.23;;;;;;;2.11;88.63;101776.88;123155;1105;104369;-81
2024/02/17 06:21:13;;;;;;;36.53;16.60;;;;;;;2.13;88.23;101774.43;122912;1102;104335;-81
2024/02/17 06:23:46;;;;;;;41.43;17.03;;;;;;;2.07;88.07;101772.22;122932;1105;104649;-81
2024/02/17 06:26:25;;;;;;;37.53;15.37;;;;;;;2.04;88.45;101778.78;123019;1105;104281;-82
2024/02/17 06:29:00;;;;;;;36.37;16.20;;;;;;;2.03;88.17;101771.80;123172;1102;104331;-82
2024/02/17 06:31:32;;;;;;;33.67;14.63;;;;;;;2.01;88.17;101783.68;123022;1105;104335;-82
2024/02/17 06:34:04;;;;;;;39.30;15.37;;;;;;;1.99;88.13;101783.55;123308;1105;104719;-82
2024/02/17 06:36:36;;;;;;;32.47;14.60;;;;;;;1.98;87.48;101779.16;122928;1105;104386;-80
2024/02/17 06:39:07;;;;;;;33.40;15.07;;;;;;;1.95;87.78;101791.82;122764;1105;104290;-80
2024/02/17 06:41:39;;;;;;;35.60;15.80;;;;;;;1.96;88.21;101784.20;122904;1102;104316;-80
2024/02/17 06:44:10;;;;;;;36.77;16.63;;;;;;;1.98;88.16;101792.10;122871;1105;104281;-81
2024/02/17 06:46:47;;;;;;;38.70;17.73;;;;;;;2.00;88.50;101789.66;122980;1105;104374;-80
2024/02/17 06:49:18;;;;;;;39.47;17.27;;;;;;;1.97;88.04;101792.86;122821;1105;104341;-81
2024/02/17 06:51:49;;;;;;;41.43;18.93;;;;;;;2.02;88.23;101793.28;122791;1104;104318;-82
2024/02/17 06:54:21;;;;;;;39.93;17.80;;;;;;;2.03;88.32;101789.93;123042;1105;104265;-81
2024/02/17 06:56:52;;;;;;;40.03;18.10;;;;;;;2.09;87.93;101782.72;122865;1102;104252;-81
2024/02/17 06:59:23;;;;;;;38.47;17.20;;;;;;;2.12;88.47;101785.55;122997;1102;104281;-82
2024/02/17 07:01:54;;;;;;;41.33;17.20;;;;;;;2.14;88.43;101779.75;123084;1105;104252;-81
2024/02/17 07:04:25;;;;;;;40.77;17.50;;;;;;;2.13;88.92;101780.51;123125;1105;104284;-82
2024/02/17 07:06:56;;;;;;;41.00;19.33;;;;;;;2.14;88.90;101777.16;123011;1105;104492;-82
2024/02/17 07:09:29;;;;;;;42.70;19.03;;;;;;;2.16;87.79;101780.78;123042;1102;104728;-82
2024/02/17 07:12:00;;;;;;;43.17;19.00;;;;;;;2.14;88.10;101784.93;123177;1102;104277;-83
2024/02/17 07:14:32;;;;;;;41.30;18.40;;;;;;;2.11;88.22;101788.94;123458;1102;104296;-82
2024/02/17 07:17:03;;;;;;;45.30;18.97;;;;;;;2.08;87.62;101786.06;123020;1102;104273;-82
2024/02/17 07:19:34;;;;;;;40.40;18.07;;;;;;;2.08;88.24;101784.38;123128;1103;104447;-82
2024/02/17 07:22:08;;;;;;;37.60;14.65;;;;;;;2.08;88.38;101783.48;123106;1105;104360;-83
2024/02/17 07:24:39;;;;;;;35.40;16.20;;;;;;;2.09;88.98;101787.89;123065;1102;104245;-81
2024/02/17 07:27:10;;;;;;;35.37;14.17;;;;;;;2.14;88.64;101789.21;122901;1105;104392;-81
2024/02/17 07:29:42;;;;;;;35.97;14.63;;;;;;;2.21;88.95;101785.48;122943;1102;104264;-81
2024/02/17 07:32:14;;;;;;;37.37;15.60;;;;;;;2.21;88.64;101783.79;123061;1102;104408;-82
2024/02/17 07:34:46;;;;;;;38.15;16.25;;;;;;;2.22;88.55;101779.54;122974;1105;104307;-81
2024/02/17 07:37:18;;;;;;;33.47;15.73;;;;;;;2.24;88.90;101775.39;122952;1102;104252;-80
2024/02/17 07:39:49;;;;;;;33.07;14.40;;;;;;;2.28;88.83;101780.09;123055;1102;104398;-82
2024/02/17 07:42:21;;;;;;;33.10;14.83;;;;;;;2.25;88.28;101774.64;123055;1105;104300;-81
2024/02/17 07:44:52;;;;;;;30.80;14.67;;;;;;;2.25;88.63;101778.12;123062;1105;104287;-82
2024/02/17 07:47:23;;;;;;;34.60;15.23;;;;;;;2.27;88.53;101781.75;123127;1105;104213;-82
2024/02/17 07:49:54;;;;;;;34.30;15.00;;;;;;;2.28;88.55;101777.50;122960;1103;104221;-82
2024/02/17 07:52:25;;;;;;;36.90;16.43;;;;;;;2.32;88.55;101779.57;122887;1102;104258;-80
2024/02/17 07:54:57;;;;;;;41.63;17.17;;;;;;;2.37;88.99;101778.32;122795;1103;104236;-81
2024/02/17 07:57:28;;;;;;;36.13;15.80;;;;;;;2.40;89.16;101786.37;122907;1102;104389;-82
2024/02/17 08:00:02;;;;;;;34.90;15.33;;;;;;;2.44;89.13;101774.58;122940;1102;104405;-81
2024/02/17 08:02:37;;;;;;;37.87;15.50;;;;;;;2.46;88.65;101779.14;122964;1105;104402;-81
2024/02/17 08:05:21;;;;;;;35.10;15.07;;;;;;;2.48;88.70;101782.77;123116;1103;104393;-81
2024/02/17 08:07:54;;;;;;;38.60;16.53;;;;;;;2.47;88.69;101783.53;123009;1105;104447;-82
2024/02/17 08:10:25;;;;;;;37.87;15.43;;;;;;;2.48;88.22;101782.77;123070;1102;104479;-81
2024/02/17 08:12:56;;;;;;;33.13;15.03;;;;;;;2.53;88.82;101784.87;123016;1105;104392;-81
2024/02/17 08:15:28;;;;;;;32.40;14.47;;;;;;;2.55;89.02;101784.20;122990;1102;104326;-82
2024/02/17 08:17:59;;;;;;;31.90;13.40;;;;;;;2.55;88.83;101779.02;123086;1102;104405;-82
2024/02/17 08:20:31;;;;;;;31.13;12.73;;;;;;;2.54;88.59;101779.82;123042;1102;104313;-82
2024/02/17 08:23:02;;;;;;;30.50;12.87;;;;;;;2.58;88.74;101783.58;122983;1105;104328;-82
2024/02/17 08:25:34;;;;;;;27.83;12.30;;;;;;;2.59;88.93;101788.90;123049;1105;104399;-83
2024/02/17 08:28:07;;;;;;;32.80;12.73;;;;;;;2.63;88.56;101783.22;123043;1105;104265;-81
2024/02/17 08:30:39;;;;;;;29.95;12.33;;;;;;;2.68;88.79;101778.41;123394;1105;104254;-82
2024/02/17 08:33:10;;;;;;;31.97;12.73;;;;;;;2.70;89.18;101780.38;123274;1102;104392;-81
2024/02/17 08:35:41;;;;;;;26.97;10.97;;;;;;;2.76;88.53;101777.42;123350;1103;104303;-84
2024/02/17 08:38:13;;;;;;;31.25;12.60;;;;;;;2.77;89.04;101783.50;123160;1104;104316;-82
2024/02/17 08:40:44;;;;;;;30.07;12.67;;;;;;;2.81;89.11;101780.42;123399;1105;104258;-82
2024/02/17 08:43:16;;;;;;;30.40;13.13;;;;;;;2.88;89.24;101777.56;123293;1105;104319;-81
2024/02/17 08:45:47;;;;;;;34.67;13.27;;;;;;;2.94;89.29;101772.91;123257;1105;104255;-81
2024/02/17 08:48:18;;;;;;;30.73;12.93;;;;;;;2.93;88.85;101783.16;123158;1106;104169;-81
2024/02/17 08:50:51;;;;;;;29.77;14.07;;;;;;;2.85;88.23;101779.89;123190;1103;104236;-82
2024/02/17 08:53:22;;;;;;;30.17;12.37;;;;;;;2.84;88.45;101770.31;123166;1105;104341;-83
2024/02/17 08:55:54;;;;;;;31.97;12.37;;;;;;;2.85;89.14;101775.64;123401;1102;104274;-82
2024/02/17 08:58:25;;;;;;;37.47;11.90;;;;;;;2.92;89.18;101781.36;123280;1102;104210;-81
2024/02/17 09:00:57;;;;;;;25.77;11.00;;;;;;;2.99;89.36;101779.43;123231;1104;104264;-82
2024/02/17 09:03:30;;;;;;;29.35;12.07;;;;;;;3.00;88.29;101772.55;123379;1105;104289;-82
2024/02/17 09:06:01;;;;;;;29.23;12.17;;;;;;;3.00;88.50;101773.44;123275;1105;104373;-83
2024/02/17 09:08:32;;;;;;;28.30;11.20;;;;;;;3.03;88.70;101771.12;123235;1105;104871;-82
2024/02/17 09:11:04;;;;;;;27.63;11.77;;;;;;;3.05;87.83;101779.03;123390;1102;104341;-82
2024/02/17 09:13:35;;;;;;;27.70;11.47;;;;;;;3.07;88.28;101767.12;123311;1102;104286;-82
2024/02/17 09:16:07;;;;;;;29.77;11.57;;;;;;;3.15;88.49;101778.16;122969;1105;104233;-81
2024/02/17 09:18:38;;;;;;;26.43;11.83;;;;;;;3.20;88.65;101775.16;123067;1102;104287;-81
2024/02/17 09:21:09;;;;;;;26.27;11.30;;;;;;;3.28;88.84;101772.33;123064;1104;104349;-81
2024/02/17 09:23:41;;;;;;;29.73;12.20;;;;;;;3.33;88.35;101771.92;123197;1102;104185;-83
2024/02/17 09:26:12;;;;;;;29.27;12.63;;;;;;;3.35;87.72;101769.45;123297;1105;104795;-82
2024/02/17 09:28:43;;;;;;;27.70;12.55;;;;;;;3.38;88.77;101764.52;123026;1105;104364;-81
2024/02/17 09:31:14;;;;;;;27.43;11.30;;;;;;;3.45;88.97;101758.19;123070;1105;104303;-81
2024/02/17 09:33:45;;;;;;;29.27;12.10;;;;;;;3.48;88.33;101759.34;123148;1102;104281;-81
2024/02/17 09:36:16;;;;;;;26.57;11.30;;;;;;;3.52;88.40;101763.09;123129;1102;104242;-82
2024/02/17 09:38:48;;;;;;;26.80;11.97;;;;;;;3.49;87.88;101768.03;123207;1102;104859;-83
2024/02/17 09:41:19;;;;;;;28.23;11.63;;;;;;;3.47;88.75;101762.71;123323;1103;104344;-82
2024/02/17 09:43:51;;;;;;;27.83;12.10;;;;;;;3.44;87.68;101759.86;123083;1105;104265;-82
2024/02/17 09:46:26;;;;;;;28.10;11.53;;;;;;;3.43;87.62;101755.47;123127;1103;104659;-81
2024/02/17 09:49:01;;;;;;;28.40;11.67;;;;;;;3.51;88.30;101756.12;123069;1105;104262;-82
2024/02/17 09:51:34;;;;;;;25.57;10.87;;;;;;;3.55;88.21;101752.98;123251;1103;104412;-83
2024/02/17 09:54:06;;;;;;;25.53;10.67;;;;;;;3.51;87.21;101757.02;123498;1105;104361;-81
2024/02/17 09:56:38;;;;;;;27.43;11.07;;;;;;;3.50;88.06;101755.19;123388;1105;104395;-82
2024/02/17 09:59:10;;;;;;;26.77;11.50;;;;;;;3.53;87.28;101751.95;123282;1102;104367;-81
2024/02/17 10:01:42;;;;;;;24.47;10.93;;;;;;;3.55;87.56;101756.50;123357;1102;104217;-81
2024/02/17 10:04:13;;;;;;;26.13;11.87;;;;;;;3.56;87.84;101750.51;123403;1102;117883;-82
2024/02/17 10:06:44;;;;;;;28.27;10.60;;;;;;;3.61;87.87;101753.49;123208;1102;104345;-81
2024/02/17 10:09:21;;;;;;;24.50;11.23;;;;;;;3.65;87.72;101746.89;123257;1105;104370;-81
2024/02/17 10:11:52;;;;;;;30.80;11.87;;;;;;;3.70;87.73;101745.58;123163;1102;104354;-82
2024/02/17 10:14:27;;;;;;;25.47;10.93;;;;;;;3.75;87.93;101746.86;123071;1104;104360;-82
2024/02/17 10:17:00;;;;;;;27.13;10.93;;;;;;;3.74;87.71;101732.98;123381;1105;104364;-84
2024/02/17 10:19:32;;;;;;;34.57;12.40;;;;;;;3.65;86.24;101749.48;123016;1105;104357;-81
2024/02/17 10:22:03;;;;;;;25.43;11.40;;;;;;;3.60;86.87;101738.72;123138;1104;104239;-82
2024/02/17 10:24:35;;;;;;;25.27;11.33;;;;;;;3.64;87.08;101737.28;123077;1105;104305;-82
2024/02/17 10:27:08;;;;;;;26.67;10.57;;;;;;;3.70;87.47;101738.69;123155;1105;104374;-83
2024/02/17 10:29:39;;;;;;;28.60;12.00;;;;;;;3.71;87.49;101739.58;123586;1105;104721;-82
2024/02/17 10:32:11;;;;;;;27.73;12.07;;;;;;;3.74;87.95;101745.96;123038;1105;104284;-81
2024/02/17 10:34:43;;;;;;;29.80;13.20;;;;;;;3.74;87.06;101732.05;123124;1105;104297;-82
2024/02/17 10:37:15;;;;;;;28.80;12.53;;;;;;;3.73;87.62;101738.05;122951;1102;104332;-81
2024/02/17 10:39:51;;;;;;;27.60;12.37;;;;;;;3.78;87.50;101740.22;123006;1102;104371;-82
2024/02/17 10:42:22;;;;;;;28.03;12.07;;;;;;;3.72;86.42;101742.30;123234;1103;104373;-82
2024/02/17 10:44:53;;;;;;;25.93;11.70;;;;;;;3.71;86.99;101737.91;122996;1105;104281;-81
2024/02/17 10:47:28;;;;;;;29.27;12.77;;;;;;;3.75;87.60;101742.56;123024;1105;104843;-81
2024/02/17 10:50:10;;;;;;;27.85;12.10;;;;;;;3.75;87.19;101736.47;123324;1105;104289;-83
2024/02/17 10:52:45;;;;;;;27.27;11.80;;;;;;;3.78;87.52;101736.72;123236;1105;104271;-83
2024/02/17 10:55:19;;;;;;;25.67;11.23;;;;;;;3.80;87.02;101735.16;123425;1105;118905;-82
2024/02/17 10:58:03;;;;;;;25.17;10.87;;;;;;;3.77;86.81;101728.04;123268;1102;104346;-82
2024/02/17 11:00:34;;;;;;;;;;;;;;;3.73;86.60;101728.55;123502;1102;104309;-82
2024/02/17 11:03:07;;;;;;;27.20;11.97;;;;;;;3.67;86.53;101721.95;123134;1102;104264;-82
2024/02/17 11:05:42;;;;;;;27.30;11.20;;;;;;;3.66;86.62;101726.25;123173;1103;104354;-83
2024/02/17 11:08:14;;;;;;;27.30;11.70;;;;;;;3.69;86.17;101721.28;123305;1105;104370;-81
2024/02/17 11:10:46;;;;;;;26.43;11.07;;;;;;;3.75;87.00;101716.59;123208;1104;104288;-82
2024/02/17 11:13:26;;;;;;;29.90;12.63;;;;;;;3.78;87.01;101714.25;123241;1105;104258;-83
2024/02/17 11:16:02;;;;;;;27.30;11.40;;;;;;;3.81;86.49;101718.80;123086;1102;110892;-81
2024/02/17 11:18:39;;;;;;;27.23;11.97;;;;;;;3.89;86.63;101706.45;123000;1105;104309;-82
2024/02/17 11:21:13;;;;;;;28.80;12.40;;;;;;;3.94;86.51;101708.66;123096;1103;104469;-82
2024/02/17 11:23:44;;;;;;;33.87;13.10;;;;;;;3.94;86.49;101713.84;123282;1101;104283;-81
2024/02/17 11:26:20;;;;;;;30.20;12.77;;;;;;;3.97;86.98;101710.57;122912;1103;104275;-81